sensor_id;sensor_type;location;lat;lon;timestamp;temperature;humidity
42227;DHT22;27892;52.378;13.122;2024-03-22T00:00:42;11.30;69.00
42227;DHT22;27892;52.378;13.122;2024-03-22T00:03:08;11.30;69.40
42227;DHT22;27892;52.378;13.122;2024-03-22T00:05:34;11.20;69.50
42227;DHT22;27892;52.378;13.122;2024-03-22T00:07:59;11.30;69.50
42227;DHT22;27892;52.378;13.122;2024-03-22T00:10:25;11.30;69.30
42227;DHT22;27892;52.378;13.122;2024-03-22T00:12:50;11.20;69.70
42227;DHT22;27892;52.378;13.122;2024-03-22T00:15:16;11.30;70.00
42227;DHT22;27892;52.378;13.122;2024-03-22T00:17:45;11.30;69.70
42227;DHT22;27892;52.378;13.122;2024-03-22T00:20:11;11.30;69.60
42227;DHT22;27892;52.378;13.122;2024-03-22T00:22:37;11.20;69.90
42227;DHT22;27892;52.378;13.122;2024-03-22T00:25:03;11.20;69.80
42227;DHT22;27892;52.378;13.122;2024-03-22T00:27:28;11.20;69.90
42227;DHT22;27892;52.378;13.122;2024-03-22T00:29:54;11.10;70.30
42227;DHT22;27892;52.378;13.122;2024-03-22T00:32:20;11.10;70.40
42227;DHT22;27892;52.378;13.122;2024-03-22T00:34:45;11.20;70.60
42227;DHT22;27892;52.378;13.122;2024-03-22T00:37:11;11.20;70.90
42227;DHT22;27892;52.378;13.122;2024-03-22T00:39:37;11.30;70.90
42227;DHT22;27892;52.378;13.122;2024-03-22T00:42:03;11.30;70.80
42227;DHT22;27892;52.378;13.122;2024-03-22T00:44:29;11.30;70.80
42227;DHT22;27892;52.378;13.122;2024-03-22T00:46:54;11.30;71.10
42227;DHT22;27892;52.378;13.122;2024-03-22T00:49:20;11.30;70.70
42227;DHT22;27892;52.378;13.122;2024-03-22T00:51:45;11.30;70.70
42227;DHT22;27892;52.378;13.122;2024-03-22T00:54:12;11.20;70.80
42227;DHT22;27892;52.378;13.122;2024-03-22T00:56:38;11.20;71.90
42227;DHT22;27892;52.378;13.122;2024-03-22T00:59:04;11.10;71.30
42227;DHT22;27892;52.378;13.122;2024-03-22T01:01:29;11.10;71.30
42227;DHT22;27892;52.378;13.122;2024-03-22T01:03:55;11.00;71.60
42227;DHT22;27892;52.378;13.122;2024-03-22T01:06:21;11.10;71.90
42227;DHT22;27892;52.378;13.122;2024-03-22T01:08:50;11.10;72.10
42227;DHT22;27892;52.378;13.122;2024-03-22T01:11:17;11.10;72.00
42227;DHT22;27892;52.378;13.122;2024-03-22T01:13:43;11.10;72.20
42227;DHT22;27892;52.378;13.122;2024-03-22T01:16:09;11.10;72.40
42227;DHT22;27892;52.378;13.122;2024-03-22T01:18:36;11.10;72.40
42227;DHT22;27892;52.378;13.122;2024-03-22T01:21:02;11.10;72.30
42227;DHT22;27892;52.378;13.122;2024-03-22T01:23:28;11.10;72.50
42227;DHT22;27892;52.378;13.122;2024-03-22T01:25:54;11.10;72.50
42227;DHT22;27892;52.378;13.122;2024-03-22T01:28:19;11.10;72.80
42227;DHT22;27892;52.378;13.122;2024-03-22T01:30:45;11.20;73.00
42227;DHT22;27892;52.378;13.122;2024-03-22T01:33:10;11.30;72.90
42227;DHT22;27892;52.378;13.122;2024-03-22T01:35:36;11.40;72.50
42227;DHT22;27892;52.378;13.122;2024-03-22T01:38:02;11.40;72.20
42227;DHT22;27892;52.378;13.122;2024-03-22T01:40:28;11.40;72.50
42227;DHT22;27892;52.378;13.122;2024-03-22T01:42:55;11.40;72.40
42227;DHT22;27892;52.378;13.122;2024-03-22T01:45:22;11.40;72.30
42227;DHT22;27892;52.378;13.122;2024-03-22T01:47:53;11.40;72.50
42227;DHT22;27892;52.378;13.122;2024-03-22T01:50:20;11.40;72.70
42227;DHT22;27892;52.378;13.122;2024-03-22T01:52:46;11.50;72.70
42227;DHT22;27892;52.378;13.122;2024-03-22T01:55:13;11.50;72.60
42227;DHT22;27892;52.378;13.122;2024-03-22T01:57:39;11.60;72.80
42227;DHT22;27892;52.378;13.122;2024-03-22T02:00:06;11.70;72.50
42227;DHT22;27892;52.378;13.122;2024-03-22T02:02:34;11.60;72.00
42227;DHT22;27892;52.378;13.122;2024-03-22T02:05:10;11.70;72.20
42227;DHT22;27892;52.378;13.122;2024-03-22T02:07:36;11.70;72.10
42227;DHT22;27892;52.378;13.122;2024-03-22T02:10:02;11.70;71.60
42227;DHT22;27892;52.378;13.122;2024-03-22T02:12:28;11.80;71.90
42227;DHT22;27892;52.378;13.122;2024-03-22T02:14:53;11.80;71.80
42227;DHT22;27892;52.378;13.122;2024-03-22T02:17:19;11.80;71.20
42227;DHT22;27892;52.378;13.122;2024-03-22T02:19:44;11.80;71.30
42227;DHT22;27892;52.378;13.122;2024-03-22T02:22:10;11.80;71.40
42227;DHT22;27892;52.378;13.122;2024-03-22T02:24:35;11.80;71.00
42227;DHT22;27892;52.378;13.122;2024-03-22T02:27:01;11.70;71.40
42227;DHT22;27892;52.378;13.122;2024-03-22T02:29:27;11.70;71.60
42227;DHT22;27892;52.378;13.122;2024-03-22T02:31:53;11.80;71.10
42227;DHT22;27892;52.378;13.122;2024-03-22T02:34:19;11.70;70.80
42227;DHT22;27892;52.378;13.122;2024-03-22T02:36:44;11.70;71.10
42227;DHT22;27892;52.378;13.122;2024-03-22T02:39:10;11.70;71.30
42227;DHT22;27892;52.378;13.122;2024-03-22T02:41:36;11.80;71.30
42227;DHT22;27892;52.378;13.122;2024-03-22T02:44:02;11.80;71.00
42227;DHT22;27892;52.378;13.122;2024-03-22T02:46:27;11.80;70.90
42227;DHT22;27892;52.378;13.122;2024-03-22T02:48:53;11.80;71.10
42227;DHT22;27892;52.378;13.122;2024-03-22T02:51:19;11.70;70.90
42227;DHT22;27892;52.378;13.122;2024-03-22T02:53:44;11.70;71.10
42227;DHT22;27892;52.378;13.122;2024-03-22T02:56:10;11.70;71.10
42227;DHT22;27892;52.378;13.122;2024-03-22T02:58:36;11.80;71.10
42227;DHT22;27892;52.378;13.122;2024-03-22T03:01:02;11.80;70.90
42227;DHT22;27892;52.378;13.122;2024-03-22T03:03:29;11.80;70.70
42227;DHT22;27892;52.378;13.122;2024-03-22T03:05:54;11.70;70.40
42227;DHT22;27892;52.378;13.122;2024-03-22T03:08:20;11.70;70.40
42227;DHT22;27892;52.378;13.122;2024-03-22T03:10:46;11.70;70.70
42227;DHT22;27892;52.378;13.122;2024-03-22T03:13:12;11.80;70.40
42227;DHT22;27892;52.378;13.122;2024-03-22T03:15:37;11.80;70.50
42227;DHT22;27892;52.378;13.122;2024-03-22T03:18:03;11.70;70.20
42227;DHT22;27892;52.378;13.122;2024-03-22T03:20:29;11.70;70.30
42227;DHT22;27892;52.378;13.122;2024-03-22T03:22:54;11.80;70.40
42227;DHT22;27892;52.378;13.122;2024-03-22T03:25:21;11.80;70.00
42227;DHT22;27892;52.378;13.122;2024-03-22T03:27:46;11.80;70.10
42227;DHT22;27892;52.378;13.122;2024-03-22T03:30:12;11.80;69.80
42227;DHT22;27892;52.378;13.122;2024-03-22T03:32:38;11.70;69.70
42227;DHT22;27892;52.378;13.122;2024-03-22T03:35:03;11.70;70.20
42227;DHT22;27892;52.378;13.122;2024-03-22T03:37:30;11.70;69.70
42227;DHT22;27892;52.378;13.122;2024-03-22T03:39:56;11.70;69.90
42227;DHT22;27892;52.378;13.122;2024-03-22T03:42:22;11.70;69.80
42227;DHT22;27892;52.378;13.122;2024-03-22T03:44:48;11.60;69.90
42227;DHT22;27892;52.378;13.122;2024-03-22T03:47:13;11.70;69.80
42227;DHT22;27892;52.378;13.122;2024-03-22T03:49:39;11.70;69.90
42227;DHT22;27892;52.378;13.122;2024-03-22T03:52:05;11.60;69.60
42227;DHT22;27892;52.378;13.122;2024-03-22T03:54:30;11.60;69.70
42227;DHT22;27892;52.378;13.122;2024-03-22T03:56:56;11.70;69.90
42227;DHT22;27892;52.378;13.122;2024-03-22T03:59:22;11.70;69.80
42227;DHT22;27892;52.378;13.122;2024-03-22T04:01:47;11.70;69.40
42227;DHT22;27892;52.378;13.122;2024-03-22T04:04:13;11.60;69.80
42227;DHT22;27892;52.378;13.122;2024-03-22T04:06:39;11.60;69.70
42227;DHT22;27892;52.378;13.122;2024-03-22T04:09:04;11.60;69.60
42227;DHT22;27892;52.378;13.122;2024-03-22T04:11:30;11.70;69.60
42227;DHT22;27892;52.378;13.122;2024-03-22T04:13:56;11.60;69.50
42227;DHT22;27892;52.378;13.122;2024-03-22T04:16:22;11.60;69.60
42227;DHT22;27892;52.378;13.122;2024-03-22T04:18:47;11.60;70.00
42227;DHT22;27892;52.378;13.122;2024-03-22T04:21:13;11.60;70.00
42227;DHT22;27892;52.378;13.122;2024-03-22T04:23:39;11.60;69.60
42227;DHT22;27892;52.378;13.122;2024-03-22T04:26:04;11.60;69.50
42227;DHT22;27892;52.378;13.122;2024-03-22T04:28:30;11.70;69.70
42227;DHT22;27892;52.378;13.122;2024-03-22T04:33:26;11.70;69.70
42227;DHT22;27892;52.378;13.122;2024-03-22T04:35:52;11.70;69.60
42227;DHT22;27892;52.378;13.122;2024-03-22T04:38:18;11.80;69.70
42227;DHT22;27892;52.378;13.122;2024-03-22T04:40:43;11.80;69.50
42227;DHT22;27892;52.378;13.122;2024-03-22T04:43:09;11.90;69.50
42227;DHT22;27892;52.378;13.122;2024-03-22T04:45:35;11.90;69.40
42227;DHT22;27892;52.378;13.122;2024-03-22T04:48:04;12.00;68.90
42227;DHT22;27892;52.378;13.122;2024-03-22T04:50:30;12.00;68.80
42227;DHT22;27892;52.378;13.122;2024-03-22T04:52:57;12.00;68.50
42227;DHT22;27892;52.378;13.122;2024-03-22T04:55:22;12.00;68.60
42227;DHT22;27892;52.378;13.122;2024-03-22T04:57:48;12.00;68.50
42227;DHT22;27892;52.378;13.122;2024-03-22T05:00:14;12.00;68.40
42227;DHT22;27892;52.378;13.122;2024-03-22T05:02:40;12.00;68.50
42227;DHT22;27892;52.378;13.122;2024-03-22T05:05:06;12.00;68.40
42227;DHT22;27892;52.378;13.122;2024-03-22T05:07:33;12.00;68.30
42227;DHT22;27892;52.378;13.122;2024-03-22T05:09:59;12.00;68.10
42227;DHT22;27892;52.378;13.122;2024-03-22T05:12:25;12.00;67.90
42227;DHT22;27892;52.378;13.122;2024-03-22T05:14:50;12.00;68.10
42227;DHT22;27892;52.378;13.122;2024-03-22T05:17:16;12.00;68.10
42227;DHT22;27892;52.378;13.122;2024-03-22T05:19:41;12.10;68.10
42227;DHT22;27892;52.378;13.122;2024-03-22T05:22:07;12.20;68.10
42227;DHT22;27892;52.378;13.122;2024-03-22T05:24:33;12.20;67.90
42227;DHT22;27892;52.378;13.122;2024-03-22T05:26:59;12.20;67.80
42227;DHT22;27892;52.378;13.122;2024-03-22T05:29:25;12.20;67.50
42227;DHT22;27892;52.378;13.122;2024-03-22T05:31:50;12.20;67.60
42227;DHT22;27892;52.378;13.122;2024-03-22T05:34:17;12.30;67.60
42227;DHT22;27892;52.378;13.122;2024-03-22T05:36:44;12.30;67.60
42227;DHT22;27892;52.378;13.122;2024-03-22T05:39:10;12.40;67.60
42227;DHT22;27892;52.378;13.122;2024-03-22T05:41:36;12.40;67.50
42227;DHT22;27892;52.378;13.122;2024-03-22T05:44:03;12.40;67.50
42227;DHT22;27892;52.378;13.122;2024-03-22T05:46:29;12.40;67.50
42227;DHT22;27892;52.378;13.122;2024-03-22T05:48:55;12.50;67.10
42227;DHT22;27892;52.378;13.122;2024-03-22T05:51:21;12.50;66.80
42227;DHT22;27892;52.378;13.122;2024-03-22T05:53:46;12.50;66.90
42227;DHT22;27892;52.378;13.122;2024-03-22T05:56:12;12.60;67.00
42227;DHT22;27892;52.378;13.122;2024-03-22T05:58:37;12.70;66.40
42227;DHT22;27892;52.378;13.122;2024-03-22T06:01:03;12.70;66.40
42227;DHT22;27892;52.378;13.122;2024-03-22T06:03:29;12.80;66.00
42227;DHT22;27892;52.378;13.122;2024-03-22T06:05:55;12.80;66.00
42227;DHT22;27892;52.378;13.122;2024-03-22T06:08:25;12.80;66.60
42227;DHT22;27892;52.378;13.122;2024-03-22T06:10:54;12.80;66.00
42227;DHT22;27892;52.378;13.122;2024-03-22T06:13:20;12.80;65.60
42227;DHT22;27892;52.378;13.122;2024-03-22T06:15:48;12.90;65.00
42227;DHT22;27892;52.378;13.122;2024-03-22T06:18:15;12.90;65.10
42227;DHT22;27892;52.378;13.122;2024-03-22T06:20:41;12.90;64.90
42227;DHT22;27892;52.378;13.122;2024-03-22T06:23:08;12.90;64.90
42227;DHT22;27892;52.378;13.122;2024-03-22T06:25:34;12.90;65.30
42227;DHT22;27892;52.378;13.122;2024-03-22T06:27:59;12.90;65.00
42227;DHT22;27892;52.378;13.122;2024-03-22T06:30:25;13.00;64.80
42227;DHT22;27892;52.378;13.122;2024-03-22T06:32:51;12.90;64.80
42227;DHT22;27892;52.378;13.122;2024-03-22T06:35:16;12.90;64.80
42227;DHT22;27892;52.378;13.122;2024-03-22T06:37:42;13.00;64.80
42227;DHT22;27892;52.378;13.122;2024-03-22T06:40:09;13.10;65.00
42227;DHT22;27892;52.378;13.122;2024-03-22T06:42:35;13.20;64.40
42227;DHT22;27892;52.378;13.122;2024-03-22T06:45:01;13.20;64.20
42227;DHT22;27892;52.378;13.122;2024-03-22T06:47:27;13.40;64.50
42227;DHT22;27892;52.378;13.122;2024-03-22T06:49:53;13.40;63.80
42227;DHT22;27892;52.378;13.122;2024-03-22T06:52:19;13.40;64.00
42227;DHT22;27892;52.378;13.122;2024-03-22T06:54:45;13.60;63.50
42227;DHT22;27892;52.378;13.122;2024-03-22T06:57:11;13.60;63.50
42227;DHT22;27892;52.378;13.122;2024-03-22T06:59:37;13.60;62.70
42227;DHT22;27892;52.378;13.122;2024-03-22T07:02:03;13.60;62.90
42227;DHT22;27892;52.378;13.122;2024-03-22T07:04:29;13.60;63.40
42227;DHT22;27892;52.378;13.122;2024-03-22T07:06:54;13.70;63.30
42227;DHT22;27892;52.378;13.122;2024-03-22T07:09:20;13.70;62.90
42227;DHT22;27892;52.378;13.122;2024-03-22T07:11:46;13.90;63.00
42227;DHT22;27892;52.378;13.122;2024-03-22T07:14:11;13.90;62.50
42227;DHT22;27892;52.378;13.122;2024-03-22T07:16:37;13.90;62.30
42227;DHT22;27892;52.378;13.122;2024-03-22T07:19:03;13.90;62.00
42227;DHT22;27892;52.378;13.122;2024-03-22T07:21:29;14.00;62.50
42227;DHT22;27892;52.378;13.122;2024-03-22T07:23:55;14.10;62.50
42227;DHT22;27892;52.378;13.122;2024-03-22T07:26:21;14.20;62.20
42227;DHT22;27892;52.378;13.122;2024-03-22T07:28:47;14.30;62.00
42227;DHT22;27892;52.378;13.122;2024-03-22T07:31:12;14.40;61.50
42227;DHT22;27892;52.378;13.122;2024-03-22T07:33:39;14.40;61.50
42227;DHT22;27892;52.378;13.122;2024-03-22T07:36:06;14.50;61.00
42227;DHT22;27892;52.378;13.122;2024-03-22T07:38:32;14.50;60.90
42227;DHT22;27892;52.378;13.122;2024-03-22T07:40:58;14.50;60.80
42227;DHT22;27892;52.378;13.122;2024-03-22T07:43:23;14.50;61.30
42227;DHT22;27892;52.378;13.122;2024-03-22T07:45:49;14.50;60.90
42227;DHT22;27892;52.378;13.122;2024-03-22T07:48:15;14.50;60.80
42227;DHT22;27892;52.378;13.122;2024-03-22T07:50:41;14.50;60.70
42227;DHT22;27892;52.378;13.122;2024-03-22T07:53:07;14.60;60.90
42227;DHT22;27892;52.378;13.122;2024-03-22T07:55:33;14.60;60.50
42227;DHT22;27892;52.378;13.122;2024-03-22T07:57:59;14.70;60.20
42227;DHT22;27892;52.378;13.122;2024-03-22T08:00:24;14.70;60.10
42227;DHT22;27892;52.378;13.122;2024-03-22T08:02:51;14.70;59.90
42227;DHT22;27892;52.378;13.122;2024-03-22T08:05:17;14.70;59.70
42227;DHT22;27892;52.378;13.122;2024-03-22T08:07:42;14.80;59.90
42227;DHT22;27892;52.378;13.122;2024-03-22T08:10:09;14.80;59.90
42227;DHT22;27892;52.378;13.122;2024-03-22T08:12:35;14.90;59.60
42227;DHT22;27892;52.378;13.122;2024-03-22T08:15:01;14.90;60.00
42227;DHT22;27892;52.378;13.122;2024-03-22T08:17:27;15.00;59.90
42227;DHT22;27892;52.378;13.122;2024-03-22T08:19:52;15.10;59.40
42227;DHT22;27892;52.378;13.122;2024-03-22T08:22:19;15.10;58.60
42227;DHT22;27892;52.378;13.122;2024-03-22T08:24:45;15.00;59.50
42227;DHT22;27892;52.378;13.122;2024-03-22T08:27:10;15.00;59.60
42227;DHT22;27892;52.378;13.122;2024-03-22T08:29:36;15.20;59.50
42227;DHT22;27892;52.378;13.122;2024-03-22T08:32:02;15.20;59.40
42227;DHT22;27892;52.378;13.122;2024-03-22T08:34:30;15.30;59.00
42227;DHT22;27892;52.378;13.122;2024-03-22T08:36:56;15.20;59.00
42227;DHT22;27892;52.378;13.122;2024-03-22T08:39:21;15.20;59.20
42227;DHT22;27892;52.378;13.122;2024-03-22T08:41:47;15.20;59.00
42227;DHT22;27892;52.378;13.122;2024-03-22T08:44:13;15.20;59.10
42227;DHT22;27892;52.378;13.122;2024-03-22T08:46:39;15.30;59.20
42227;DHT22;27892;52.378;13.122;2024-03-22T08:49:04;15.30;58.80
42227;DHT22;27892;52.378;13.122;2024-03-22T08:51:30;15.40;58.80
42227;DHT22;27892;52.378;13.122;2024-03-22T08:53:56;15.30;58.80
42227;DHT22;27892;52.378;13.122;2024-03-22T08:56:21;15.40;58.80
42227;DHT22;27892;52.378;13.122;2024-03-22T08:58:47;15.30;58.90
42227;DHT22;27892;52.378;13.122;2024-03-22T09:01:13;15.30;59.00
42227;DHT22;27892;52.378;13.122;2024-03-22T09:03:38;15.30;59.10
42227;DHT22;27892;52.378;13.122;2024-03-22T09:06:04;15.40;58.80
42227;DHT22;27892;52.378;13.122;2024-03-22T09:08:30;15.40;58.60
42227;DHT22;27892;52.378;13.122;2024-03-22T09:10:56;15.40;58.70
42227;DHT22;27892;52.378;13.122;2024-03-22T09:13:22;15.50;59.00
42227;DHT22;27892;52.378;13.122;2024-03-22T09:15:48;15.90;59.40
42227;DHT22;27892;52.378;13.122;2024-03-22T09:18:13;16.20;58.60
42227;DHT22;27892;52.378;13.122;2024-03-22T09:20:39;16.40;57.50
42227;DHT22;27892;52.378;13.122;2024-03-22T09:23:05;16.60;57.30
42227;DHT22;27892;52.378;13.122;2024-03-22T09:25:30;16.70;57.00
42227;DHT22;27892;52.378;13.122;2024-03-22T09:27:56;16.70;56.60
42227;DHT22;27892;52.378;13.122;2024-03-22T09:30:22;16.70;57.10
42227;DHT22;27892;52.378;13.122;2024-03-22T09:32:47;16.90;57.00
42227;DHT22;27892;52.378;13.122;2024-03-22T09:35:13;17.00;57.00
42227;DHT22;27892;52.378;13.122;2024-03-22T09:37:43;17.00;55.70
42227;DHT22;27892;52.378;13.122;2024-03-22T09:40:09;16.90;54.80
42227;DHT22;27892;52.378;13.122;2024-03-22T09:42:38;16.70;55.00
42227;DHT22;27892;52.378;13.122;2024-03-22T09:45:08;16.60;55.40
42227;DHT22;27892;52.378;13.122;2024-03-22T09:47:36;16.40;55.70
42227;DHT22;27892;52.378;13.122;2024-03-22T09:50:07;16.50;56.00
42227;DHT22;27892;52.378;13.122;2024-03-22T09:52:33;16.50;55.80
42227;DHT22;27892;52.378;13.122;2024-03-22T09:54:59;16.40;55.60
42227;DHT22;27892;52.378;13.122;2024-03-22T09:57:25;16.40;56.20
42227;DHT22;27892;52.378;13.122;2024-03-22T09:59:51;16.40;56.20
42227;DHT22;27892;52.378;13.122;2024-03-22T10:02:17;16.40;55.90
42227;DHT22;27892;52.378;13.122;2024-03-22T10:04:43;16.50;56.40
42227;DHT22;27892;52.378;13.122;2024-03-22T10:07:09;16.60;56.00
42227;DHT22;27892;52.378;13.122;2024-03-22T10:09:36;16.70;56.40
42227;DHT22;27892;52.378;13.122;2024-03-22T10:12:02;16.90;56.60
42227;DHT22;27892;52.378;13.122;2024-03-22T10:14:29;17.00;55.90
42227;DHT22;27892;52.378;13.122;2024-03-22T10:16:56;17.20;56.10
42227;DHT22;27892;52.378;13.122;2024-03-22T10:19:23;17.50;55.50
42227;DHT22;27892;52.378;13.122;2024-03-22T10:22:04;17.70;55.40
42227;DHT22;27892;52.378;13.122;2024-03-22T10:24:31;17.70;54.40
42227;DHT22;27892;52.378;13.122;2024-03-22T10:26:58;17.70;54.40
42227;DHT22;27892;52.378;13.122;2024-03-22T10:29:24;17.80;54.30
42227;DHT22;27892;52.378;13.122;2024-03-22T10:31:54;17.90;54.00
42227;DHT22;27892;52.378;13.122;2024-03-22T10:34:24;18.00;53.70
42227;DHT22;27892;52.378;13.122;2024-03-22T10:36:50;18.40;54.20
42227;DHT22;27892;52.378;13.122;2024-03-22T10:39:19;19.10;54.20
42227;DHT22;27892;52.378;13.122;2024-03-22T10:41:48;19.60;51.90
42227;DHT22;27892;52.378;13.122;2024-03-22T10:44:17;19.80;50.90
42227;DHT22;27892;52.378;13.122;2024-03-22T10:46:45;19.90;50.60
42227;DHT22;27892;52.378;13.122;2024-03-22T10:49:16;20.20;51.30
42227;DHT22;27892;52.378;13.122;2024-03-22T10:51:54;20.30;49.60
42227;DHT22;27892;52.378;13.122;2024-03-22T10:54:26;20.10;49.40
42227;DHT22;27892;52.378;13.122;2024-03-22T10:56:53;19.70;49.30
42227;DHT22;27892;52.378;13.122;2024-03-22T10:59:21;19.30;50.20
42227;DHT22;27892;52.378;13.122;2024-03-22T11:01:47;19.10;51.00
42227;DHT22;27892;52.378;13.122;2024-03-22T11:04:21;18.90;50.60
42227;DHT22;27892;52.378;13.122;2024-03-22T11:06:50;18.70;51.10
42227;DHT22;27892;52.378;13.122;2024-03-22T11:09:26;18.50;51.40
42227;DHT22;27892;52.378;13.122;2024-03-22T11:11:53;18.40;52.10
42227;DHT22;27892;52.378;13.122;2024-03-22T11:14:19;18.30;52.50
42227;DHT22;27892;52.378;13.122;2024-03-22T11:16:50;18.20;52.50
42227;DHT22;27892;52.378;13.122;2024-03-22T11:19:16;18.30;52.50
42227;DHT22;27892;52.378;13.122;2024-03-22T11:21:42;18.20;52.90
42227;DHT22;27892;52.378;13.122;2024-03-22T11:24:07;18.20;52.80
42227;DHT22;27892;52.378;13.122;2024-03-22T11:26:33;18.40;53.10
42227;DHT22;27892;52.378;13.122;2024-03-22T11:28:59;18.50;53.10
42227;DHT22;27892;52.378;13.122;2024-03-22T11:31:26;18.60;52.30
42227;DHT22;27892;52.378;13.122;2024-03-22T11:33:55;18.60;52.40
42227;DHT22;27892;52.378;13.122;2024-03-22T11:36:22;18.60;52.10
42227;DHT22;27892;52.378;13.122;2024-03-22T11:38:48;18.60;52.40
42227;DHT22;27892;52.378;13.122;2024-03-22T11:41:17;18.50;52.70
42227;DHT22;27892;52.378;13.122;2024-03-22T11:43:45;18.40;52.30
42227;DHT22;27892;52.378;13.122;2024-03-22T11:46:14;18.30;52.40
42227;DHT22;27892;52.378;13.122;2024-03-22T11:48:40;18.10;52.50
42227;DHT22;27892;52.378;13.122;2024-03-22T11:51:08;18.00;52.60
42227;DHT22;27892;52.378;13.122;2024-03-22T11:53:35;17.90;52.90
42227;DHT22;27892;52.378;13.122;2024-03-22T11:56:01;17.80;54.20
42227;DHT22;27892;52.378;13.122;2024-03-22T11:58:29;17.80;54.60
42227;DHT22;27892;52.378;13.122;2024-03-22T12:00:56;17.70;55.50
42227;DHT22;27892;52.378;13.122;2024-03-22T12:03:22;17.70;56.30
42227;DHT22;27892;52.378;13.122;2024-03-22T12:05:48;17.60;56.20
42227;DHT22;27892;52.378;13.122;2024-03-22T12:08:17;17.60;56.90
42227;DHT22;27892;52.378;13.122;2024-03-22T12:10:43;17.60;57.10
42227;DHT22;27892;52.378;13.122;2024-03-22T12:13:09;17.60;57.50
42227;DHT22;27892;52.378;13.122;2024-03-22T12:15:35;17.50;57.50
42227;DHT22;27892;52.378;13.122;2024-03-22T12:18:01;17.30;58.40
42227;DHT22;27892;52.378;13.122;2024-03-22T12:20:26;17.20;59.30
42227;DHT22;27892;52.378;13.122;2024-03-22T12:22:52;17.20;60.30
42227;DHT22;27892;52.378;13.122;2024-03-22T12:25:18;17.10;61.30
42227;DHT22;27892;52.378;13.122;2024-03-22T12:27:46;17.10;61.70
42227;DHT22;27892;52.378;13.122;2024-03-22T12:30:12;17.00;62.90
42227;DHT22;27892;52.378;13.122;2024-03-22T12:32:37;16.90;63.50
42227;DHT22;27892;52.378;13.122;2024-03-22T12:35:03;16.90;63.90
42227;DHT22;27892;52.378;13.122;2024-03-22T12:37:29;16.80;64.50
42227;DHT22;27892;52.378;13.122;2024-03-22T12:39:55;16.80;65.10
42227;DHT22;27892;52.378;13.122;2024-03-22T12:42:21;16.80;65.40
42227;DHT22;27892;52.378;13.122;2024-03-22T12:44:47;16.80;65.80
42227;DHT22;27892;52.378;13.122;2024-03-22T12:47:12;16.80;66.10
42227;DHT22;27892;52.378;13.122;2024-03-22T12:49:38;16.70;66.50
42227;DHT22;27892;52.378;13.122;2024-03-22T12:52:04;16.60;66.50
42227;DHT22;27892;52.378;13.122;2024-03-22T12:54:29;16.60;67.30
42227;DHT22;27892;52.378;13.122;2024-03-22T12:56:55;16.50;67.50
42227;DHT22;27892;52.378;13.122;2024-03-22T12:59:21;16.50;68.10
42227;DHT22;27892;52.378;13.122;2024-03-22T13:01:46;16.50;68.00
42227;DHT22;27892;52.378;13.122;2024-03-22T13:04:12;16.50;67.40
42227;DHT22;27892;52.378;13.122;2024-03-22T13:06:38;16.50;67.60
42227;DHT22;27892;52.378;13.122;2024-03-22T13:09:03;16.40;68.10
42227;DHT22;27892;52.378;13.122;2024-03-22T13:11:31;16.40;68.60
42227;DHT22;27892;52.378;13.122;2024-03-22T13:13:57;16.50;69.60
42227;DHT22;27892;52.378;13.122;2024-03-22T13:16:23;16.50;68.60
42227;DHT22;27892;52.378;13.122;2024-03-22T13:18:49;16.40;68.80
42227;DHT22;27892;52.378;13.122;2024-03-22T13:21:14;16.50;68.70
42227;DHT22;27892;52.378;13.122;2024-03-22T13:23:40;16.40;69.00
42227;DHT22;27892;52.378;13.122;2024-03-22T13:26:06;16.40;69.70
42227;DHT22;27892;52.378;13.122;2024-03-22T13:28:32;16.40;69.40
42227;DHT22;27892;52.378;13.122;2024-03-22T13:31:05;16.30;68.90
42227;DHT22;27892;52.378;13.122;2024-03-22T13:33:34;16.20;69.30
42227;DHT22;27892;52.378;13.122;2024-03-22T13:36:01;16.20;69.90
42227;DHT22;27892;52.378;13.122;2024-03-22T13:38:26;16.30;71.10
42227;DHT22;27892;52.378;13.122;2024-03-22T13:40:56;16.30;70.80
42227;DHT22;27892;52.378;13.122;2024-03-22T13:43:22;16.50;71.10
42227;DHT22;27892;52.378;13.122;2024-03-22T13:45:51;16.50;70.60
42227;DHT22;27892;52.378;13.122;2024-03-22T13:48:20;16.60;70.40
42227;DHT22;27892;52.378;13.122;2024-03-22T13:50:55;16.60;70.90
42227;DHT22;27892;52.378;13.122;2024-03-22T13:53:21;16.70;70.50
42227;DHT22;27892;52.378;13.122;2024-03-22T13:55:48;16.70;70.50
42227;DHT22;27892;52.378;13.122;2024-03-22T13:58:14;16.80;70.30
42227;DHT22;27892;52.378;13.122;2024-03-22T14:00:39;16.80;69.70
42227;DHT22;27892;52.378;13.122;2024-03-22T14:03:05;16.70;69.90
42227;DHT22;27892;52.378;13.122;2024-03-22T14:05:31;16.70;70.00
42227;DHT22;27892;52.378;13.122;2024-03-22T14:07:58;16.60;70.00
42227;DHT22;27892;52.378;13.122;2024-03-22T14:10:24;16.60;70.30
42227;DHT22;27892;52.378;13.122;2024-03-22T14:12:52;16.50;70.50
42227;DHT22;27892;52.378;13.122;2024-03-22T14:15:18;16.50;70.80
42227;DHT22;27892;52.378;13.122;2024-03-22T14:17:44;16.50;70.60
42227;DHT22;27892;52.378;13.122;2024-03-22T14:20:10;16.40;71.50
42227;DHT22;27892;52.378;13.122;2024-03-22T14:22:41;16.40;71.30
42227;DHT22;27892;52.378;13.122;2024-03-22T14:25:07;16.30;71.30
42227;DHT22;27892;52.378;13.122;2024-03-22T14:27:34;16.30;71.60
42227;DHT22;27892;52.378;13.122;2024-03-22T14:30:00;16.30;72.00
42227;DHT22;27892;52.378;13.122;2024-03-22T14:32:26;16.20;71.90
42227;DHT22;27892;52.378;13.122;2024-03-22T14:34:52;16.20;72.00
42227;DHT22;27892;52.378;13.122;2024-03-22T14:37:18;16.20;72.50
42227;DHT22;27892;52.378;13.122;2024-03-22T14:39:43;16.30;72.70
42227;DHT22;27892;52.378;13.122;2024-03-22T14:42:09;16.30;72.60
42227;DHT22;27892;52.378;13.122;2024-03-22T14:44:35;16.30;73.00
42227;DHT22;27892;52.378;13.122;2024-03-22T14:47:00;16.30;72.90
42227;DHT22;27892;52.378;13.122;2024-03-22T14:49:26;16.30;72.30
42227;DHT22;27892;52.378;13.122;2024-03-22T14:51:52;16.30;72.30
42227;DHT22;27892;52.378;13.122;2024-03-22T14:54:17;16.30;72.80
42227;DHT22;27892;52.378;13.122;2024-03-22T14:56:43;16.30;72.40
42227;DHT22;27892;52.378;13.122;2024-03-22T14:59:09;16.20;72.00
42227;DHT22;27892;52.378;13.122;2024-03-22T15:01:34;16.10;72.50
42227;DHT22;27892;52.378;13.122;2024-03-22T15:04:01;15.90;72.50
42227;DHT22;27892;52.378;13.122;2024-03-22T15:06:27;15.80;73.40
42227;DHT22;27892;52.378;13.122;2024-03-22T15:08:55;15.80;74.40
42227;DHT22;27892;52.378;13.122;2024-03-22T15:11:21;15.80;74.80